Time;durP1;ratioP1;P1;durP2;ratioP2;P2;SDS_P1;SDS_P2;PMS_P1;PMS_P2;Temp;Humidity;BMP_temperature;BMP_pressure;BME280_temperature;BME280_humidity;BME280_pressure;Samples;Min_cycle;Max_cycle;Signal;HPM_P1;HPM_P2
2021/06/06 00:00:24;;;;;;;40.92;24.75;;;14.20;99.90;;;;;;4986659;28;20041;-83
2021/06/06 00:02:51;;;;;;;44.15;25.08;;;14.20;99.90;;;;;;5001866;28;20026;-83
2021/06/06 00:05:17;;;;;;;49.80;27.15;;;14.10;99.90;;;;;;5001594;28;20043;-84
2021/06/06 00:07:43;;;;;;;37.30;21.13;;;14.10;99.90;;;;;;4985475;28;20057;-84
2021/06/06 00:10:09;;;;;;;41.58;22.38;;;14.20;99.90;;;;;;4986795;28;20472;-84
2021/06/06 00:12:36;;;;;;;44.10;24.85;;;14.10;99.90;;;;;;4986994;28;20031;-82
2021/06/06 00:15:03;;;;;;;47.97;24.20;;;14.20;99.90;;;;;;4985461;28;20093;-84
2021/06/06 00:17:29;;;;;;;37.65;22.10;;;14.10;99.90;;;;;;5001604;28;20105;-84
2021/06/06 00:19:54;;;;;;;44.15;23.48;;;14.10;99.90;;;;;;5001401;28;20030;-84
2021/06/06 00:22:20;;;;;;;43.40;23.25;;;14.10;99.90;;;;;;4986829;28;20034;-83
2021/06/06 00:24:45;;;;;;;38.58;20.38;;;14.10;99.90;;;;;;4986693;28;20027;-83
2021/06/06 00:27:11;;;;;;;42.00;21.50;;;14.10;99.90;;;;;;4986637;28;20049;-84
2021/06/06 00:29:37;;;;;;;41.65;23.50;;;14.10;99.90;;;;;;4985338;28;20054;-84
2021/06/06 00:32:03;;;;;;;40.47;22.45;;;14.10;99.90;;;;;;4985366;28;20034;-84
2021/06/06 00:34:29;;;;;;;43.15;23.00;;;14.10;99.90;;;;;;4985364;28;20039;-84
2021/06/06 00:36:57;;;;;;;47.17;25.17;;;14.10;99.90;;;;;;4985389;28;20023;-82
2021/06/06 00:39:25;;;;;;;43.08;22.48;;;14.10;99.90;;;;;;4985377;28;20170;-84
2021/06/06 00:41:52;;;;;;;44.53;22.60;;;14.10;99.90;;;;;;4988633;28;20119;-84
2021/06/06 00:44:21;;;;;;;46.03;23.90;;;14.10;99.90;;;;;;4989249;28;20394;-84
2021/06/06 00:46:47;;;;;;;38.35;21.90;;;14.10;99.90;;;;;;4990519;28;20490;-85
2021/06/06 00:49:14;;;;;;;35.40;19.20;;;14.10;99.90;;;;;;5005412;28;20039;-85
2021/06/06 00:51:49;;;;;;;34.45;18.90;;;14.10;99.90;;;;;;4988747;28;20050;-84
2021/06/06 00:54:21;;;;;;;40.17;19.73;;;14.10;99.90;;;;;;4989073;28;20023;-84
2021/06/06 00:56:51;;;;;;;36.38;19.50;;;14.00;99.90;;;;;;4988727;28;20121;-84
2021/06/06 00:59:22;;;;;;;38.92;20.38;;;14.00;99.90;;;;;;4989065;28;20039;-84
2021/06/06 01:01:49;;;;;;;35.78;19.08;;;14.00;99.90;;;;;;4990215;28;20035;-84
2021/06/06 01:04:16;;;;;;;40.92;19.70;;;14.00;99.90;;;;;;4988768;28;20034;-83
2021/06/06 01:06:51;;;;;;;34.75;18.88;;;14.00;99.90;;;;;;4989769;28;20023;-85
2021/06/06 01:09:19;;;;;;;37.15;21.30;;;14.00;99.90;;;;;;4989687;28;20105;-84
2021/06/06 01:11:59;;;;;;;43.30;21.45;;;14.00;99.90;;;;;;4988638;28;20031;-84
2021/06/06 01:14:37;;;;;;;41.33;21.60;;;14.00;99.90;;;;;;4988464;28;20069;-84
2021/06/06 01:17:16;;;;;;;38.40;20.67;;;14.00;99.90;;;;;;5004365;28;20030;-83
2021/06/06 01:19:46;;;;;;;36.80;20.80;;;14.00;99.90;;;;;;5004428;28;20050;-84
2021/06/06 01:22:21;;;;;;;;;;;14.00;99.90;;;;;;4988771;28;20045;-84
2021/06/06 01:24:55;;;;;;;36.85;20.63;;;14.00;99.90;;;;;;5004748;28;19918;-84
2021/06/06 01:27:24;;;;;;;30.58;17.45;;;14.10;99.90;;;;;;4988444;28;20054;-84
2021/06/06 01:29:59;;;;;;;32.28;18.15;;;14.10;99.90;;;;;;4988541;28;20058;-84
2021/06/06 01:32:43;;;;;;;36.35;19.02;;;14.00;99.90;;;;;;5004287;28;20062;-84
2021/06/06 01:35:15;;;;;;;36.78;21.42;;;14.10;99.90;;;;;;4988226;28;20054;-83
2021/06/06 01:37:46;;;;;;;41.22;21.83;;;14.10;99.90;;;;;;4987763;28;20046;-84
2021/06/06 01:40:19;;;;;;;33.35;20.05;;;14.10;99.90;;;;;;4988031;28;20031;-84
2021/06/06 01:43:07;;;;;;;41.28;21.50;;;14.10;99.90;;;;;;4989226;28;20042;-84
2021/06/06 01:45:43;;;;;;;40.05;21.70;;;14.10;99.90;;;;;;4968450;29;20492;-83
2021/06/06 01:48:11;;;;;;;34.38;19.48;;;14.00;99.90;;;;;;4984888;28;20038;-84
2021/06/06 01:51:06;;;;;;;43.92;22.75;;;14.00;99.90;;;;;;4983983;28;20380;-84
2021/06/06 01:53:35;;;;;;;47.42;23.60;;;14.00;99.90;;;;;;4982537;28;20102;-84
2021/06/06 01:56:04;;;;;;;35.72;21.60;;;14.00;99.90;;;;;;4983423;28;20043;-83
2021/06/06 01:58:40;;;;;;;41.40;24.47;;;14.00;99.90;;;;;;4983446;28;20118;-85
2021/06/06 02:01:16;;;;;;;46.90;23.38;;;14.00;99.90;;;;;;4983094;28;20295;-83
2021/06/06 02:03:47;;;;;;;39.20;22.27;;;14.00;99.90;;;;;;4983390;28;20025;-84
2021/06/06 02:06:27;;;;;;;39.85;22.67;;;14.00;99.90;;;;;;4983290;28;20038;-84
2021/06/06 02:08:56;;;;;;;39.85;21.73;;;14.10;99.90;;;;;;4968511;29;20110;-82
2021/06/06 02:11:46;;;;;;;35.92;20.23;;;14.00;99.90;;;;;;4983385;28;20031;-85
2021/06/06 02:14:18;;;;;;;31.25;20.45;;;14.00;99.90;;;;;;4983029;28;20121;-84
2021/06/06 02:16:46;;;;;;;;;;;14.10;99.90;;;;;;4983571;28;20500;-85
2021/06/06 02:19:34;;;;;;;35.60;19.85;;;14.10;99.90;;;;;;4968041;28;19914;-84
2021/06/06 02:22:12;;;;;;;40.80;21.90;;;14.10;99.90;;;;;;4983012;28;20027;-84
2021/06/06 02:24:41;;;;;;;29.92;19.33;;;14.10;99.90;;;;;;4983266;28;20082;-83
2021/06/06 02:27:35;;;;;;;36.03;21.33;;;14.10;99.90;;;;;;4986018;28;20027;-82
2021/06/06 02:30:14;;;;;;;35.80;20.90;;;14.10;99.90;;;;;;5002221;28;20031;-83
2021/06/06 02:33:02;;;;;;;30.58;18.30;;;14.10;99.90;;;;;;4986040;28;20027;-83
2021/06/06 02:35:57;;;;;;;37.42;21.88;;;14.10;99.90;;;;;;4985498;28;20138;-80
2021/06/06 02:38:43;;;;;;;27.88;18.30;;;14.10;99.90;;;;;;5002090;28;20035;-84
2021/06/06 02:41:27;;;;;;;31.60;18.50;;;14.10;99.90;;;;;;5001843;28;20130;-84
2021/06/06 02:44:10;;;;;;;32.42;21.30;;;14.10;99.90;;;;;;5001562;28;20026;-81
2021/06/06 02:46:44;;;;;;;30.83;18.92;;;14.10;99.90;;;;;;4987258;28;20475;-84
2021/06/06 02:49:15;;;;;;;31.63;18.60;;;14.10;99.90;;;;;;4986966;28;20384;-84
2021/06/06 02:51:49;;;;;;;32.42;18.95;;;14.10;99.90;;;;;;4986506;28;53568;-83
2021/06/06 02:54:25;;;;;;;31.95;19.33;;;14.10;99.90;;;;;;4986428;28;20023;-84
2021/06/06 02:56:57;;;;;;;29.10;17.25;;;14.10;99.90;;;;;;4970857;28;20030;-85
2021/06/06 02:59:34;;;;;;;36.33;21.08;;;14.10;99.90;;;;;;5002166;28;20031;-83
2021/06/06 03:02:08;;;;;;;38.95;21.83;;;14.10;99.90;;;;;;4986809;28;20034;-83
2021/06/06 03:04:37;;;;;;;36.72;20.10;;;14.00;99.90;;;;;;5002650;28;20034;-83
2021/06/06 03:07:11;;;;;;;30.45;17.80;;;14.00;99.90;;;;;;4986369;28;20062;-83
2021/06/06 03:09:41;;;;;;;38.63;22.98;;;14.00;99.90;;;;;;4986150;28;20073;-84
2021/06/06 03:12:11;;;;;;;32.90;19.25;;;14.00;99.90;;;;;;5002236;28;20026;-83
2021/06/06 03:14:43;;;;;;;33.58;20.30;;;14.00;99.90;;;;;;5002446;28;20030;-84
2021/06/06 03:17:25;;;;;;;39.00;21.73;;;14.00;99.90;;;;;;5002551;28;20399;-84
2021/06/06 03:19:54;;;;;;;33.53;21.27;;;13.90;99.90;;;;;;5002269;28;20253;-83
2021/06/06 03:22:27;;;;;;;33.65;20.02;;;14.00;99.90;;;;;;5002560;28;20034;-83
2021/06/06 03:24:58;;;;;;;38.08;20.98;;;14.00;99.90;;;;;;5002181;28;20039;-83
2021/06/06 03:27:35;;;;;;;36.28;20.60;;;14.00;99.90;;;;;;4986089;28;20053;-84
2021/06/06 03:30:14;;;;;;;37.28;22.75;;;14.00;99.90;;;;;;4986097;28;20591;-82
2021/06/06 03:32:42;;;;;;;40.08;24.55;;;14.00;99.90;;;;;;4986051;28;20038;-83
2021/06/06 03:35:11;;;;;;;43.40;24.15;;;14.00;99.90;;;;;;4985987;28;20039;-83
2021/06/06 03:37:38;;;;;;;42.65;20.55;;;13.90;99.90;;;;;;4985713;28;20061;-84
2021/06/06 03:40:19;;;;;;;37.30;20.93;;;13.90;99.90;;;;;;4987471;28;20525;-84
2021/06/06 03:42:54;;;;;;;46.22;23.80;;;13.90;99.90;;;;;;4987180;28;20050;-83
2021/06/06 03:45:21;;;;;;;37.53;20.75;;;13.90;99.90;;;;;;5002082;28;20035;-84
2021/06/06 03:47:47;;;;;;;38.00;19.77;;;13.90;99.90;;;;;;4985915;28;20038;-84
2021/06/06 03:50:15;;;;;;;50.55;25.33;;;13.90;99.90;;;;;;4985500;28;20051;-84
2021/06/06 03:52:44;;;;;;;40.88;22.25;;;13.90;99.90;;;;;;4985800;28;20037;-84
2021/06/06 03:55:14;;;;;;;42.20;21.27;;;13.90;99.90;;;;;;5001068;28;20101;-84
2021/06/06 03:57:42;;;;;;;37.75;20.35;;;14.00;99.90;;;;;;5000859;28;20031;-83
2021/06/06 04:00:14;;;;;;;45.67;22.73;;;13.90;99.90;;;;;;5001255;28;20042;-82
2021/06/06 04:02:53;;;;;;;42.15;24.38;;;13.90;99.90;;;;;;4999762;28;20027;-83
2021/06/06 04:05:23;;;;;;;46.35;24.13;;;13.80;99.90;;;;;;4985007;28;20026;-84
2021/06/06 04:07:49;;;;;;;50.22;24.38;;;13.80;99.90;;;;;;4986291;28;20137;-84
2021/06/06 04:10:16;;;;;;;42.97;22.05;;;13.90;99.90;;;;;;5001038;28;20034;-83
2021/06/06 04:12:43;;;;;;;42.47;23.42;;;13.90;99.90;;;;;;5001054;28;20085;-82
2021/06/06 04:15:10;;;;;;;43.60;21.67;;;13.90;99.90;;;;;;5000600;28;20034;-85
2021/06/06 04:17:37;;;;;;;48.45;22.92;;;13.90;99.90;;;;;;4985008;28;20034;-84
2021/06/06 04:20:04;;;;;;;47.00;25.90;;;13.90;99.90;;;;;;5001075;28;20045;-84
2021/06/06 04:22:32;;;;;;;48.70;25.95;;;13.90;99.90;;;;;;5000964;28;20031;-84
2021/06/06 04:25:03;;;;;;;51.30;27.73;;;13.80;99.90;;;;;;5000563;28;20019;-84
2021/06/06 04:27:29;;;;;;;57.25;26.73;;;13.80;99.90;;;;;;4984910;28;20027;-84
2021/06/06 04:29:57;;;;;;;49.10;24.45;;;13.80;99.90;;;;;;4984838;28;20033;-84
2021/06/06 04:32:23;;;;;;;57.65;26.67;;;13.80;99.90;;;;;;4985179;28;20051;-83
2021/06/06 04:34:49;;;;;;;49.85;24.95;;;13.80;99.90;;;;;;4984932;28;20107;-85
2021/06/06 04:37:18;;;;;;;62.88;29.08;;;13.80;99.90;;;;;;4984689;28;20027;-84
2021/06/06 04:39:45;;;;;;;50.20;26.60;;;13.80;99.90;;;;;;5000670;28;20050;-84
2021/06/06 04:42:19;;;;;;;44.28;22.70;;;13.80;99.90;;;;;;4984952;28;20115;-85
2021/06/06 04:44:48;;;;;;;44.65;22.92;;;13.80;99.90;;;;;;4984774;28;20094;-85
2021/06/06 04:47:14;;;;;;;54.03;27.30;;;13.80;99.90;;;;;;5000884;28;20062;-84
2021/06/06 04:49:49;;;;;;;46.78;23.25;;;13.90;99.90;;;;;;5000594;28;20043;-84
2021/06/06 04:52:16;;;;;;;46.22;24.00;;;13.90;99.90;;;;;;4984767;28;20030;-84
2021/06/06 04:54:46;;;;;;;52.78;27.10;;;13.90;99.90;;;;;;4984448;28;20063;-83
2021/06/06 04:57:12;;;;;;;46.80;25.55;;;13.90;99.90;;;;;;4984705;28;20034;-84
2021/06/06 04:59:39;;;;;;;45.53;22.75;;;13.90;99.90;;;;;;4984544;28;20034;-84
2021/06/06 05:02:10;;;;;;;44.70;23.67;;;13.90;99.90;;;;;;4984413;28;20058;-84
2021/06/06 05:04:42;;;;;;;38.38;22.08;;;13.90;99.90;;;;;;4984596;28;20035;-84
2021/06/06 05:07:09;;;;;;;46.55;23.60;;;14.00;99.90;;;;;;4984360;28;20023;-83
2021/06/06 05:09:36;;;;;;;38.85;21.52;;;14.00;99.90;;;;;;4984287;28;20090;-84
2021/06/06 05:12:07;;;;;;;36.28;20.80;;;14.00;99.90;;;;;;4984351;28;20081;-84
2021/06/06 05:14:35;;;;;;;40.78;23.02;;;14.00;99.90;;;;;;4984208;28;20134;-83
2021/06/06 05:17:03;;;;;;;37.30;22.83;;;14.00;99.90;;;;;;5000541;28;20030;-83
2021/06/06 05:19:35;;;;;;;40.40;22.52;;;14.00;99.90;;;;;;4999655;28;20019;-83
2021/06/06 05:22:03;;;;;;;37.67;20.25;;;14.10;99.90;;;;;;4984273;28;20031;-84
2021/06/06 05:24:48;;;;;;;38.75;22.65;;;14.10;99.90;;;;;;4984263;28;20062;-83
2021/06/06 05:27:17;;;;;;;36.75;20.23;;;14.10;99.90;;;;;;4930906;29;20418;-83
2021/06/06 05:29:42;;;;;;;36.30;21.77;;;14.10;99.90;;;;;;4932067;29;20043;-83
2021/06/06 05:32:08;;;;;;;41.13;21.65;;;14.10;99.90;;;;;;4932353;29;20050;-84
2021/06/06 05:34:34;;;;;;;42.85;23.05;;;14.00;99.90;;;;;;4932433;29;20453;-84
2021/06/06 05:36:59;;;;;;;38.92;21.08;;;14.00;99.90;;;;;;4932143;29;20040;-84
2021/06/06 05:39:25;;;;;;;37.25;20.27;;;14.10;99.90;;;;;;4932015;29;20035;-84
2021/06/06 05:41:50;;;;;;;37.78;21.48;;;14.10;99.90;;;;;;4916187;29;20076;-85
2021/06/06 05:44:16;;;;;;;43.15;23.45;;;14.10;99.90;;;;;;4931898;29;20047;-83
2021/06/06 05:46:41;;;;;;;53.10;26.25;;;14.00;99.90;;;;;;4948188;29;20034;-85
2021/06/06 05:49:07;;;;;;;46.97;23.70;;;14.00;99.90;;;;;;4932217;29;20492;-84
2021/06/06 05:51:33;;;;;;;50.10;25.13;;;14.00;99.90;;;;;;4931911;29;20402;-83
2021/06/06 05:54:08;;;;;;;39.72;22.70;;;14.10;99.90;;;;;;4933249;29;20035;-85
2021/06/06 05:56:34;;;;;;;48.05;24.92;;;14.00;99.90;;;;;;4931453;29;20047;-82
2021/06/06 05:58:59;;;;;;;46.60;24.33;;;14.00;99.90;;;;;;4947785;29;20615;-85
2021/06/06 06:01:27;;;;;;;46.17;24.10;;;14.00;99.90;;;;;;4916151;29;20099;-83
2021/06/06 06:03:53;;;;;;;40.15;22.25;;;14.00;99.90;;;;;;4960984;28;20039;-84
2021/06/06 06:06:18;;;;;;;38.35;21.15;;;14.10;99.90;;;;;;4986994;28;20058;-84
2021/06/06 06:08:45;;;;;;;33.75;20.15;;;14.10;99.90;;;;;;4987099;28;20027;-83
2021/06/06 06:11:16;;;;;;;37.22;21.27;;;14.10;99.90;;;;;;4986880;28;20038;-84
2021/06/06 06:13:42;;;;;;;37.83;22.17;;;14.10;99.90;;;;;;4986878;28;20034;-84
2021/06/06 06:16:12;;;;;;;39.50;21.70;;;14.10;99.90;;;;;;4986539;28;20053;-82
2021/06/06 06:18:38;;;;;;;36.80;21.20;;;14.10;99.90;;;;;;4986796;28;20046;-80
2021/06/06 06:21:07;;;;;;;39.58;21.40;;;14.10;99.90;;;;;;4973677;28;20042;-81
2021/06/06 06:23:33;;;;;;;37.25;20.67;;;14.00;99.90;;;;;;4983275;28;20028;-83
2021/06/06 06:25:59;;;;;;;37.10;20.17;;;14.10;99.90;;;;;;4986457;28;20045;-83
2021/06/06 06:28:25;;;;;;;37.45;21.80;;;14.10;99.90;;;;;;4986275;28;20030;-83
2021/06/06 06:31:11;;;;;;;38.08;20.15;;;14.20;99.90;;;;;;4987604;28;20027;-84
2021/06/06 06:33:46;;;;;;;35.50;20.65;;;14.20;99.90;;;;;;4987677;28;20046;-85
2021/06/06 06:36:14;;;;;;;31.88;19.08;;;14.20;99.90;;;;;;4985768;28;20059;-82
2021/06/06 06:38:40;;;;;;;36.70;19.92;;;14.30;99.90;;;;;;4985068;28;20046;-82
2021/06/06 06:41:06;;;;;;;28.23;16.40;;;14.30;99.90;;;;;;4987278;28;20030;-82
2021/06/06 06:43:32;;;;;;;33.58;19.17;;;14.30;99.90;;;;;;4985060;28;20041;-83
2021/06/06 06:45:58;;;;;;;40.30;24.85;;;14.40;99.90;;;;;;4985919;28;20058;-83
2021/06/06 06:48:26;;;;;;;36.92;21.85;;;14.30;99.90;;;;;;4985312;28;20117;-82
2021/06/06 06:50:54;;;;;;;40.65;21.23;;;14.20;99.90;;;;;;4986774;28;20054;-82
2021/06/06 06:53:21;;;;;;;40.05;21.10;;;14.40;99.90;;;;;;4987067;28;20034;-82
2021/06/06 06:55:46;;;;;;;41.22;22.52;;;14.30;99.90;;;;;;5003374;28;20054;-84
2021/06/06 06:58:12;;;;;;;41.83;22.98;;;14.50;99.90;;;;;;4988371;28;20035;-84
2021/06/06 07:00:44;;;;;;;36.63;22.05;;;14.40;99.90;;;;;;5003250;28;20043;-84
2021/06/06 07:03:12;;;;;;;35.83;22.42;;;14.40;99.90;;;;;;4985879;28;20034;-84
2021/06/06 07:06:01;;;;;;;38.22;21.50;;;14.40;99.90;;;;;;5001959;28;20041;-82
2021/06/06 07:08:30;;;;;;;32.63;19.87;;;14.50;99.90;;;;;;4965408;29;20044;-83
2021/06/06 07:10:56;;;;;;;34.80;20.98;;;14.60;99.90;;;;;;4965472;29;20035;-82
2021/06/06 07:13:24;;;;;;;37.65;21.50;;;14.50;99.90;;;;;;4965306;29;20103;-83
2021/06/06 07:15:51;;;;;;;40.40;23.30;;;14.50;99.90;;;;;;4965619;29;20047;-83
2021/06/06 07:18:21;;;;;;;37.35;21.13;;;14.50;99.90;;;;;;4949119;29;20122;-83
2021/06/06 07:20:49;;;;;;;40.30;24.23;;;14.60;99.90;;;;;;4949401;29;20113;-83
2021/06/06 07:23:15;;;;;;;34.95;20.00;;;14.70;99.90;;;;;;4949242;29;20512;-84
2021/06/06 07:25:43;;;;;;;30.17;19.55;;;14.70;99.90;;;;;;4965823;29;20043;-83
2021/06/06 07:28:15;;;;;;;31.30;20.75;;;14.80;99.90;;;;;;4965061;29;20020;-79
2021/06/06 07:30:46;;;;;;;31.92;18.98;;;14.80;99.90;;;;;;4965375;29;20035;-84
2021/06/06 07:33:14;;;;;;;37.28;21.83;;;14.90;99.90;;;;;;4965149;29;20081;-82
2021/06/06 07:35:40;;;;;;;29.55;18.17;;;14.90;99.90;;;;;;4948918;29;20051;-83
2021/06/06 07:38:06;;;;;;;29.75;19.30;;;14.90;99.90;;;;;;4964893;29;20039;-84
2021/06/06 07:40:37;;;;;;;27.95;17.80;;;14.90;99.90;;;;;;4948959;29;20073;-83
2021/06/06 07:43:03;;;;;;;31.10;19.67;;;15.00;99.90;;;;;;4964961;29;20566;-83
2021/06/06 07:45:29;;;;;;;27.85;19.80;;;15.00;99.90;;;;;;4975713;28;20053;-83
2021/06/06 07:47:55;;;;;;;28.13;18.10;;;15.10;99.90;;;;;;4986658;28;20050;-82
2021/06/06 07:50:24;;;;;;;26.65;18.98;;;15.20;99.90;;;;;;4985287;28;20376;-82
2021/06/06 07:52:49;;;;;;;25.85;17.85;;;15.30;99.90;;;;;;5001600;28;20035;-84
2021/06/06 07:55:18;;;;;;;24.85;17.77;;;15.40;99.90;;;;;;5001493;28;20126;-82
2021/06/06 07:57:44;;;;;;;25.20;16.42;;;15.40;99.90;;;;;;4984971;28;20031;-83
2021/06/06 08:00:13;;;;;;;23.38;16.50;;;15.40;99.90;;;;;;4984855;28;20038;-82
2021/06/06 08:02:41;;;;;;;22.92;15.88;;;15.30;99.90;;;;;;4985141;28;20042;-82
2021/06/06 08:05:09;;;;;;;22.83;15.77;;;15.30;99.90;;;;;;4985123;28;20113;-82
2021/06/06 08:07:35;;;;;;;21.05;15.52;;;15.40;99.90;;;;;;4986052;28;20110;-83
2021/06/06 08:10:01;;;;;;;23.00;15.93;;;15.40;99.90;;;;;;4984867;28;20042;-83
2021/06/06 08:12:27;;;;;;;19.88;14.00;;;15.40;99.90;;;;;;4984907;28;20031;-82
2021/06/06 08:14:54;;;;;;;20.67;14.05;;;15.40;99.90;;;;;;4984831;28;20055;-84
2021/06/06 08:17:21;;;;;;;18.92;13.15;;;15.40;99.90;;;;;;4985005;28;20073;-84
2021/06/06 08:19:47;;;;;;;17.17;13.20;;;15.60;99.90;;;;;;4986342;28;20030;-82
2021/06/06 08:22:14;;;;;;;20.80;12.98;;;15.70;99.90;;;;;;4984661;28;20030;-85
2021/06/06 08:24:40;;;;;;;15.93;11.63;;;15.70;99.90;;;;;;4986150;28;20034;-82
2021/06/06 08:27:06;;;;;;;13.77;10.00;;;15.80;99.90;;;;;;4981395;28;20046;-83
2021/06/06 08:29:32;;;;;;;14.93;10.75;;;15.90;99.90;;;;;;4967078;28;20099;-84
2021/06/06 08:32:00;;;;;;;15.63;11.52;;;15.80;99.90;;;;;;4965366;29;20032;-83
2021/06/06 08:34:27;;;;;;;16.70;10.50;;;15.80;99.90;;;;;;4966631;28;20031;-84
2021/06/06 08:36:56;;;;;;;15.00;11.18;;;15.80;99.90;;;;;;4982618;28;20031;-82
2021/06/06 08:39:27;;;;;;;20.83;11.43;;;15.90;99.90;;;;;;4985403;28;20113;-83
2021/06/06 08:42:00;;;;;;;18.67;13.10;;;15.90;99.90;;;;;;4965559;29;20299;-84
2021/06/06 08:44:40;;;;;;;18.30;12.02;;;15.90;99.90;;;;;;4994053;28;20038;-83
2021/06/06 08:47:10;;;;;;;19.48;14.05;;;16.00;99.90;;;;;;5000145;28;20134;-83
2021/06/06 08:49:40;;;;;;;18.95;12.55;;;16.10;99.90;;;;;;4981850;28;20030;-84
2021/06/06 08:52:09;;;;;;;;;;;16.00;99.90;;;;;;4984490;28;20039;-84
2021/06/06 08:54:59;;;;;;;16.83;11.77;;;16.00;99.90;;;;;;4997890;28;19924;-84
2021/06/06 08:57:34;;;;;;;15.60;11.73;;;16.00;99.90;;;;;;4999265;28;20035;-84
2021/06/06 09:00:21;;;;;;;19.08;12.55;;;16.20;99.90;;;;;;4984631;28;20059;-84
2021/06/06 09:02:51;;;;;;;13.95;10.27;;;16.00;99.90;;;;;;5003866;28;20103;-83
2021/06/06 09:05:49;;;;;;;14.13;10.63;;;16.00;99.90;;;;;;4988399;28;20146;-84
2021/06/06 09:08:21;;;;;;;14.15;9.18;;;16.10;99.90;;;;;;4967323;29;20458;-84
2021/06/06 09:10:53;;;;;;;12.68;9.65;;;16.20;99.90;;;;;;4951221;29;20042;-83
2021/06/06 09:13:21;;;;;;;11.93;10.45;;;16.20;99.90;;;;;;4966546;29;20043;-84
2021/06/06 09:15:46;;;;;;;14.38;9.85;;;16.40;99.90;;;;;;4950818;29;20110;-82
2021/06/06 09:18:25;;;;;;;13.50;10.05;;;16.40;99.90;;;;;;4935861;29;20516;-82
2021/06/06 09:20:52;;;;;;;14.35;9.93;;;16.30;99.90;;;;;;4951923;29;20043;-83
2021/06/06 09:23:26;;;;;;;10.45;7.72;;;16.40;99.90;;;;;;4967954;29;20122;-82
2021/06/06 09:26:03;;;;;;;11.05;7.82;;;16.50;99.90;;;;;;4967822;29;20054;-82
2021/06/06 09:28:32;;;;;;;10.20;7.18;;;16.50;99.90;;;;;;4967122;29;20043;-83
2021/06/06 09:31:10;;;;;;;11.90;7.70;;;16.50;99.90;;;;;;4966826;29;20040;-83
2021/06/06 09:33:43;;;;;;;11.77;8.07;;;16.50;99.90;;;;;;4967882;29;20084;-83
2021/06/06 09:36:30;;;;;;;10.75;6.82;;;16.60;99.90;;;;;;4967216;29;20047;-83
2021/06/06 09:39:01;;;;;;;8.48;6.65;;;16.70;99.90;;;;;;4951684;29;20062;-82
2021/06/06 09:41:37;;;;;;;7.50;5.75;;;16.80;99.90;;;;;;4951612;29;20190;-83
2021/06/06 09:44:26;;;;;;;9.63;7.65;;;16.80;99.90;;;;;;4951127;28;20080;-83
2021/06/06 09:47:07;;;;;;;11.80;7.55;;;16.70;99.90;;;;;;5000690;28;20057;-83
2021/06/06 09:49:40;;;;;;;8.68;7.53;;;16.60;99.90;;;;;;4988510;28;20054;-83
2021/06/06 09:52:27;;;;;;;8.52;7.00;;;16.50;99.90;;;;;;4981277;28;20115;-82
2021/06/06 09:55:09;;;;;;;11.70;8.75;;;16.50;99.90;;;;;;4984280;28;20101;-81
2021/06/06 09:57:38;;;;;;;12.60;7.88;;;16.50;99.90;;;;;;5003476;28;20038;-82
2021/06/06 10:00:06;;;;;;;9.27;6.85;;;16.60;99.90;;;;;;4987046;28;20147;-82
2021/06/06 10:02:44;;;;;;;9.32;6.55;;;16.70;99.90;;;;;;5001317;28;20058;-82
2021/06/06 10:05:24;;;;;;;7.20;5.80;;;16.70;99.90;;;;;;4988343;28;20023;-82
2021/06/06 10:08:05;;;;;;;7.80;6.82;;;16.70;99.90;;;;;;4986722;28;20030;-82
2021/06/06 10:10:33;;;;;;;8.98;6.25;;;16.60;99.90;;;;;;4987112;28;20022;-82
2021/06/06 10:13:05;;;;;;;7.93;6.60;;;16.60;99.90;;;;;;4987139;28;20110;-82
2021/06/06 10:15:33;;;;;;;7.75;4.90;;;16.80;99.90;;;;;;4988072;28;20061;-82
2021/06/06 10:18:17;;;;;;;6.93;3.35;;;16.90;99.90;;;;;;4970240;28;20065;-82
2021/06/06 10:20:48;;;;;;;6.53;5.50;;;17.20;99.90;;;;;;4965293;28;20046;-82
2021/06/06 10:23:38;;;;;;;7.32;5.72;;;17.20;99.90;;;;;;5002486;28;20035;-81
2021/06/06 10:26:37;;;;;;;6.13;4.75;;;17.30;99.90;;;;;;4987360;28;20100;-82
2021/06/06 10:29:29;;;;;;;5.07;3.95;;;17.50;99.90;;;;;;4987401;28;20022;-82
2021/06/06 10:32:03;;;;;;;5.68;4.75;;;17.40;99.90;;;;;;4987376;28;20077;-82
2021/06/06 10:34:42;;;;;;;8.43;5.38;;;17.40;99.90;;;;;;5001870;28;20460;-82
2021/06/06 10:37:10;;;;;;;5.93;4.63;;;17.50;99.90;;;;;;4985724;28;20043;-84
2021/06/06 10:39:41;;;;;;;5.25;4.53;;;17.50;99.90;;;;;;4986013;28;20022;-82
2021/06/06 10:42:16;;;;;;;5.97;3.72;;;17.70;99.90;;;;;;4987089;28;20039;-81
2021/06/06 10:45:01;;;;;;;6.45;4.82;;;18.00;99.90;;;;;;4987031;28;20042;-80
2021/06/06 10:48:05;;;;;;;5.45;4.13;;;18.30;99.90;;;;;;4987180;28;20074;-82
2021/06/06 10:50:35;;;;;;;5.90;4.30;;;18.20;99.90;;;;;;4982897;28;20050;-81
2021/06/06 10:53:14;;;;;;;5.88;3.92;;;18.20;99.90;;;;;;5001476;28;20027;-80
2021/06/06 10:56:06;;;;;;;6.20;3.97;;;18.40;99.90;;;;;;4986896;28;20039;-83
2021/06/06 10:58:58;;;;;;;7.00;4.55;;;18.40;99.90;;;;;;4998245;28;20270;-81
2021/06/06 11:01:47;;;;;;;3.22;2.80;;;18.60;99.90;;;;;;4983714;28;20114;-81
2021/06/06 11:04:17;;;;;;;4.10;3.70;;;18.60;99.90;;;;;;4986966;28;20034;-83
2021/06/06 11:06:47;;;;;;;3.65;3.08;;;18.50;99.90;;;;;;4986000;28;20056;-85
2021/06/06 11:09:30;;;;;;;5.57;4.15;;;18.50;99.90;;;;;;4983951;28;20039;-83
2021/06/06 11:12:12;;;;;;;3.83;3.22;;;18.50;99.90;;;;;;4979891;28;20054;-83
2021/06/06 11:14:48;;;;;;;4.18;3.20;;;18.50;99.90;;;;;;4985142;28;20054;-83
2021/06/06 11:17:29;;;;;;;8.13;4.22;;;18.40;99.90;;;;;;4985724;28;20042;-84
2021/06/06 11:20:25;;;;;;;6.03;3.67;;;18.30;99.90;;;;;;4985322;28;20037;-83
2021/06/06 11:22:51;;;;;;;4.35;3.17;;;18.30;99.90;;;;;;4995966;28;20054;-84
2021/06/06 11:25:39;;;;;;;4.55;2.75;;;18.60;99.90;;;;;;4978357;28;20455;-84
2021/06/06 11:28:27;;;;;;;2.90;2.53;;;18.80;99.90;;;;;;4983028;28;20030;-83
2021/06/06 11:30:55;;;;;;;4.88;3.78;;;18.60;99.90;;;;;;4985487;28;20038;-84
2021/06/06 11:33:37;;;;;;;3.97;2.90;;;18.30;99.90;;;;;;4985955;28;20035;-84
2021/06/06 11:36:03;;;;;;;3.65;2.97;;;18.40;99.90;;;;;;4982686;28;20049;-83
2021/06/06 11:38:36;;;;;;;5.80;2.70;;;18.60;99.90;;;;;;5001461;28;20114;-80
2021/06/06 11:41:10;;;;;;;4.90;2.70;;;18.50;99.90;;;;;;4984880;28;20035;-83
2021/06/06 11:43:49;;;;;;;6.10;2.70;;;18.50;99.90;;;;;;4986828;28;20034;-83
2021/06/06 11:46:14;;;;;;;3.97;2.78;;;18.50;99.90;;;;;;4985787;28;20125;-83
2021/06/06 11:48:52;;;;;;;2.97;2.45;;;18.50;99.90;;;;;;4984732;28;20463;-84
2021/06/06 11:51:48;;;;;;;4.53;3.00;;;18.60;99.90;;;;;;4984986;28;20061;-84
2021/06/06 11:55:18;;;;;;;3.85;2.65;;;18.90;99.90;;;;;;4986364;28;20127;-84
2021/06/06 11:57:55;;;;;;;4.22;2.35;;;18.90;99.90;;;;;;4969834;28;20464;-84
2021/06/06 12:00:40;;;;;;;4.68;2.45;;;19.00;99.90;;;;;;4972381;28;20528;-83
2021/06/06 12:03:17;;;;;;;3.85;2.58;;;18.80;99.90;;;;;;4983511;28;20034;-83
2021/06/06 12:06:22;;;;;;;4.15;1.70;;;18.50;99.90;;;;;;4985172;28;20044;-83
2021/06/06 12:08:57;;;;;;;3.67;2.15;;;18.80;99.90;;;;;;4964727;29;20042;-83
2021/06/06 12:11:32;;;;;;;3.00;2.20;;;18.70;99.90;;;;;;4964739;29;20047;-83
2021/06/06 12:14:18;;;;;;;2.50;1.50;;;18.70;99.90;;;;;;4965455;29;20053;-84
2021/06/06 12:17:02;;;;;;;3.20;1.65;;;19.00;99.90;;;;;;4949136;29;20059;-82
2021/06/06 12:20:03;;;;;;;4.85;1.60;;;19.20;99.90;;;;;;4948969;29;20051;-84
2021/06/06 12:22:34;;;;;;;2.80;1.70;;;19.30;99.90;;;;;;4954730;29;20146;-84
2021/06/06 12:25:11;;;;;;;2.63;2.05;;;19.10;99.90;;;;;;4965051;29;20074;-85
2021/06/06 12:27:50;;;;;;;2.85;1.48;;;19.00;99.90;;;;;;4944850;29;20040;-83
2021/06/06 12:30:27;;;;;;;3.63;1.80;;;18.80;99.90;;;;;;4956987;29;20086;-83
2021/06/06 12:32:59;;;;;;;2.42;1.55;;;18.70;99.90;;;;;;4945627;29;20043;-84
2021/06/06 12:35:30;;;;;;;2.10;1.40;;;18.80;99.90;;;;;;4948991;28;20039;-81
2021/06/06 12:38:00;;;;;;;4.32;1.50;;;18.90;99.90;;;;;;4967910;29;20031;-84
2021/06/06 12:40:28;;;;;;;;;;;19.00;99.90;;;;;;4952878;29;20037;-82
2021/06/06 12:42:59;;;;;;;2.78;1.83;;;19.10;99.90;;;;;;4969239;29;19910;-83
2021/06/06 12:45:28;;;;;;;2.00;1.20;;;19.20;99.90;;;;;;4977900;28;20403;-84
2021/06/06 12:48:24;;;;;;;3.38;1.08;;;19.40;99.90;;;;;;5004563;28;20027;-83
2021/06/06 12:50:52;;;;;;;2.75;1.10;;;19.60;99.90;;;;;;5004144;28;20050;-84
2021/06/06 12:53:45;;;;;;;2.80;1.05;;;19.30;99.90;;;;;;5004747;28;20038;-83
2021/06/06 12:56:16;;;;;;;4.45;1.38;;;19.30;99.90;;;;;;4989143;28;20042;-82
2021/06/06 12:58:42;;;;;;;1.92;1.00;;;19.20;99.90;;;;;;5006160;28;20039;-84
2021/06/06 13:01:21;;;;;;;2.35;1.10;;;19.30;99.90;;;;;;5004821;28;20483;-83